sensor_id;sensor_type;location;lat;lon;timestamp;P1;durP1;ratioP1;P2;durP2;ratioP2
67352;SDS011;54238;52.278;21.056;2022-11-20T00:01:34;56.80;;;28.20;;
67352;SDS011;54238;52.278;21.056;2022-11-20T00:04:02;61.00;;;29.30;;
67352;SDS011;54238;52.278;21.056;2022-11-20T00:06:31;57.70;;;28.40;;
67352;SDS011;54238;52.278;21.056;2022-11-20T00:09:01;73.70;;;31.50;;
67352;SDS011;54238;52.278;21.056;2022-11-20T00:11:30;53.30;;;23.90;;
67352;SDS011;54238;52.278;21.056;2022-11-20T00:14:01;59.10;;;26.80;;
67352;SDS011;54238;52.278;21.056;2022-11-20T00:16:34;70.90;;;29.40;;
67352;SDS011;54238;52.278;21.056;2022-11-20T00:19:06;62.30;;;29.50;;
67352;SDS011;54238;52.278;21.056;2022-11-20T00:21:33;55.50;;;25.70;;
67352;SDS011;54238;52.278;21.056;2022-11-20T00:24:02;52.60;;;24.00;;
67352;SDS011;54238;52.278;21.056;2022-11-20T00:26:29;42.90;;;20.60;;
67352;SDS011;54238;52.278;21.056;2022-11-20T00:29:00;56.30;;;25.30;;
67352;SDS011;54238;52.278;21.056;2022-11-20T00:31:30;67.50;;;29.10;;
67352;SDS011;54238;52.278;21.056;2022-11-20T00:34:00;46.20;;;20.60;;
67352;SDS011;54238;52.278;21.056;2022-11-20T00:36:34;57.30;;;27.50;;
67352;SDS011;54238;52.278;21.056;2022-11-20T00:39:01;64.40;;;29.20;;
67352;SDS011;54238;52.278;21.056;2022-11-20T00:41:31;50.10;;;21.70;;
67352;SDS011;54238;52.278;21.056;2022-11-20T00:44:03;62.00;;;27.60;;
67352;SDS011;54238;52.278;21.056;2022-11-20T00:46:32;55.60;;;24.00;;
67352;SDS011;54238;52.278;21.056;2022-11-20T00:49:02;61.30;;;28.50;;
67352;SDS011;54238;52.278;21.056;2022-11-20T00:51:29;65.00;;;27.60;;
67352;SDS011;54238;52.278;21.056;2022-11-20T00:53:58;52.80;;;23.30;;
67352;SDS011;54238;52.278;21.056;2022-11-20T00:56:26;59.60;;;26.80;;
67352;SDS011;54238;52.278;21.056;2022-11-20T00:58:59;60.30;;;26.90;;
67352;SDS011;54238;52.278;21.056;2022-11-20T01:01:29;55.20;;;26.20;;
67352;SDS011;54238;52.278;21.056;2022-11-20T01:03:58;60.70;;;26.40;;
67352;SDS011;54238;52.278;21.056;2022-11-20T01:06:36;53.80;;;23.00;;
67352;SDS011;54238;52.278;21.056;2022-11-20T01:09:10;55.30;;;25.20;;
67352;SDS011;54238;52.278;21.056;2022-11-20T01:11:42;67.70;;;28.40;;
67352;SDS011;54238;52.278;21.056;2022-11-20T01:14:17;45.80;;;21.80;;
67352;SDS011;54238;52.278;21.056;2022-11-20T01:16:52;37.80;;;18.50;;
67352;SDS011;54238;52.278;21.056;2022-11-20T01:19:23;50.20;;;24.10;;
67352;SDS011;54238;52.278;21.056;2022-11-20T01:21:54;47.60;;;22.60;;
67352;SDS011;54238;52.278;21.056;2022-11-20T01:24:27;45.60;;;20.40;;
67352;SDS011;54238;52.278;21.056;2022-11-20T01:26:58;54.60;;;25.00;;
67352;SDS011;54238;52.278;21.056;2022-11-20T01:29:27;54.40;;;25.80;;
67352;SDS011;54238;52.278;21.056;2022-11-20T01:31:56;56.50;;;26.60;;
67352;SDS011;54238;52.278;21.056;2022-11-20T01:34:29;59.70;;;27.20;;
67352;SDS011;54238;52.278;21.056;2022-11-20T01:37:00;42.50;;;20.20;;
67352;SDS011;54238;52.278;21.056;2022-11-20T01:39:30;54.80;;;25.00;;
67352;SDS011;54238;52.278;21.056;2022-11-20T01:41:59;68.80;;;28.30;;
67352;SDS011;54238;52.278;21.056;2022-11-20T01:48:10;52.70;;;22.80;;
67352;SDS011;54238;52.278;21.056;2022-11-20T01:50:37;50.60;;;25.20;;
67352;SDS011;54238;52.278;21.056;2022-11-20T01:53:10;58.40;;;26.40;;
67352;SDS011;54238;52.278;21.056;2022-11-20T01:55:49;56.60;;;26.50;;
67352;SDS011;54238;52.278;21.056;2022-11-20T01:58:25;47.10;;;22.70;;
67352;SDS011;54238;52.278;21.056;2022-11-20T02:00:59;53.50;;;23.50;;
67352;SDS011;54238;52.278;21.056;2022-11-20T02:03:26;38.50;;;19.00;;
67352;SDS011;54238;52.278;21.056;2022-11-20T02:06:29;65.30;;;28.10;;
67352;SDS011;54238;52.278;21.056;2022-11-20T02:09:01;52.10;;;23.20;;
67352;SDS011;54238;52.278;21.056;2022-11-20T02:11:31;52.60;;;25.20;;
67352;SDS011;54238;52.278;21.056;2022-11-20T02:14:03;40.00;;;20.70;;
67352;SDS011;54238;52.278;21.056;2022-11-20T02:16:34;52.90;;;23.10;;
67352;SDS011;54238;52.278;21.056;2022-11-20T02:19:06;57.70;;;27.70;;
67352;SDS011;54238;52.278;21.056;2022-11-20T02:21:46;65.80;;;27.80;;
67352;SDS011;54238;52.278;21.056;2022-11-20T02:24:21;63.00;;;29.00;;
67352;SDS011;54238;52.278;21.056;2022-11-20T02:29:35;66.00;;;28.90;;
67352;SDS011;54238;52.278;21.056;2022-11-20T02:32:06;65.80;;;30.20;;
67352;SDS011;54238;52.278;21.056;2022-11-20T02:34:46;63.40;;;29.80;;
67352;SDS011;54238;52.278;21.056;2022-11-20T02:37:16;58.80;;;28.60;;
67352;SDS011;54238;52.278;21.056;2022-11-20T02:39:46;68.50;;;28.40;;
67352;SDS011;54238;52.278;21.056;2022-11-20T02:42:18;56.10;;;25.70;;
67352;SDS011;54238;52.278;21.056;2022-11-20T02:44:49;33.80;;;16.20;;
67352;SDS011;54238;52.278;21.056;2022-11-20T02:47:18;45.20;;;19.20;;
67352;SDS011;54238;52.278;21.056;2022-11-20T02:49:47;61.00;;;26.90;;
67352;SDS011;54238;52.278;21.056;2022-11-20T02:52:17;44.00;;;21.10;;
67352;SDS011;54238;52.278;21.056;2022-11-20T02:54:44;61.20;;;26.80;;
67352;SDS011;54238;52.278;21.056;2022-11-20T02:57:13;61.30;;;25.40;;
67352;SDS011;54238;52.278;21.056;2022-11-20T02:59:40;56.40;;;25.50;;
67352;SDS011;54238;52.278;21.056;2022-11-20T03:02:11;53.30;;;28.00;;
67352;SDS011;54238;52.278;21.056;2022-11-20T03:04:41;63.10;;;27.80;;
67352;SDS011;54238;52.278;21.056;2022-11-20T03:07:10;76.50;;;29.50;;
67352;SDS011;54238;52.278;21.056;2022-11-20T03:09:38;59.30;;;27.80;;
67352;SDS011;54238;52.278;21.056;2022-11-20T03:12:10;54.90;;;27.70;;
67352;SDS011;54238;52.278;21.056;2022-11-20T03:14:39;61.80;;;29.60;;
67352;SDS011;54238;52.278;21.056;2022-11-20T03:17:06;52.70;;;25.50;;
67352;SDS011;54238;52.278;21.056;2022-11-20T03:19:33;49.30;;;23.50;;
67352;SDS011;54238;52.278;21.056;2022-11-20T03:22:03;51.20;;;21.00;;
67352;SDS011;54238;52.278;21.056;2022-11-20T03:24:30;62.50;;;28.60;;
67352;SDS011;54238;52.278;21.056;2022-11-20T03:27:04;54.10;;;27.20;;
67352;SDS011;54238;52.278;21.056;2022-11-20T03:29:35;55.20;;;25.60;;
67352;SDS011;54238;52.278;21.056;2022-11-20T03:32:04;63.90;;;26.30;;
67352;SDS011;54238;52.278;21.056;2022-11-20T03:34:34;50.50;;;25.20;;
67352;SDS011;54238;52.278;21.056;2022-11-20T03:37:01;59.80;;;26.70;;
67352;SDS011;54238;52.278;21.056;2022-11-20T03:39:30;56.20;;;27.20;;
67352;SDS011;54238;52.278;21.056;2022-11-20T03:42:00;61.50;;;27.50;;
67352;SDS011;54238;52.278;21.056;2022-11-20T03:44:29;62.10;;;29.20;;
67352;SDS011;54238;52.278;21.056;2022-11-20T03:46:58;64.00;;;27.80;;
67352;SDS011;54238;52.278;21.056;2022-11-20T03:49:25;57.40;;;27.90;;
67352;SDS011;54238;52.278;21.056;2022-11-20T03:51:57;59.70;;;28.10;;
67352;SDS011;54238;52.278;21.056;2022-11-20T03:54:24;53.50;;;27.20;;
67352;SDS011;54238;52.278;21.056;2022-11-20T03:56:51;58.30;;;29.00;;
67352;SDS011;54238;52.278;21.056;2022-11-20T03:59:22;63.20;;;28.00;;
67352;SDS011;54238;52.278;21.056;2022-11-20T04:01:49;71.20;;;29.80;;
67352;SDS011;54238;52.278;21.056;2022-11-20T04:04:21;63.90;;;28.80;;
67352;SDS011;54238;52.278;21.056;2022-11-20T04:06:50;66.50;;;27.60;;
67352;SDS011;54238;52.278;21.056;2022-11-20T04:09:22;57.60;;;27.00;;
67352;SDS011;54238;52.278;21.056;2022-11-20T04:11:49;45.80;;;21.00;;
67352;SDS011;54238;52.278;21.056;2022-11-20T04:14:19;55.20;;;24.90;;
67352;SDS011;54238;52.278;21.056;2022-11-20T04:16:47;51.20;;;24.80;;
67352;SDS011;54238;52.278;21.056;2022-11-20T04:19:19;54.20;;;26.40;;
67352;SDS011;54238;52.278;21.056;2022-11-20T04:21:49;51.60;;;27.10;;
67352;SDS011;54238;52.278;21.056;2022-11-20T04:24:18;52.40;;;24.80;;
67352;SDS011;54238;52.278;21.056;2022-11-20T04:26:47;57.00;;;28.10;;
67352;SDS011;54238;52.278;21.056;2022-11-20T04:29:17;60.60;;;27.90;;
67352;SDS011;54238;52.278;21.056;2022-11-20T04:31:48;54.00;;;25.60;;
67352;SDS011;54238;52.278;21.056;2022-11-20T04:34:18;56.10;;;28.20;;
67352;SDS011;54238;52.278;21.056;2022-11-20T04:36:49;61.50;;;25.70;;
67352;SDS011;54238;52.278;21.056;2022-11-20T04:39:17;53.60;;;26.80;;
67352;SDS011;54238;52.278;21.056;2022-11-20T04:41:44;57.10;;;26.20;;
67352;SDS011;54238;52.278;21.056;2022-11-20T04:44:16;58.30;;;26.50;;
67352;SDS011;54238;52.278;21.056;2022-11-20T04:46:44;52.60;;;27.80;;
67352;SDS011;54238;52.278;21.056;2022-11-20T04:49:14;50.30;;;27.00;;
67352;SDS011;54238;52.278;21.056;2022-11-20T04:51:44;56.20;;;26.70;;
67352;SDS011;54238;52.278;21.056;2022-11-20T04:54:11;52.00;;;26.50;;
67352;SDS011;54238;52.278;21.056;2022-11-20T04:56:41;56.20;;;28.20;;
67352;SDS011;54238;52.278;21.056;2022-11-20T04:59:13;62.00;;;28.60;;
67352;SDS011;54238;52.278;21.056;2022-11-20T05:01:42;55.70;;;27.10;;
67352;SDS011;54238;52.278;21.056;2022-11-20T05:04:11;49.90;;;23.10;;
67352;SDS011;54238;52.278;21.056;2022-11-20T05:06:38;40.60;;;19.00;;
67352;SDS011;54238;52.278;21.056;2022-11-20T05:09:08;54.90;;;24.90;;
67352;SDS011;54238;52.278;21.056;2022-11-20T05:11:39;47.80;;;21.10;;
67352;SDS011;54238;52.278;21.056;2022-11-20T05:14:11;47.70;;;21.50;;
67352;SDS011;54238;52.278;21.056;2022-11-20T05:16:41;52.20;;;23.50;;
67352;SDS011;54238;52.278;21.056;2022-11-20T05:19:09;53.40;;;24.20;;
67352;SDS011;54238;52.278;21.056;2022-11-20T05:21:38;34.80;;;18.00;;
67352;SDS011;54238;52.278;21.056;2022-11-20T05:24:05;50.80;;;24.30;;
67352;SDS011;54238;52.278;21.056;2022-11-20T05:26:34;62.90;;;26.70;;
67352;SDS011;54238;52.278;21.056;2022-11-20T05:29:05;57.20;;;28.30;;
67352;SDS011;54238;52.278;21.056;2022-11-20T05:31:41;55.80;;;25.80;;
67352;SDS011;54238;52.278;21.056;2022-11-20T05:34:10;55.30;;;27.40;;
67352;SDS011;54238;52.278;21.056;2022-11-20T05:36:37;61.30;;;26.60;;
67352;SDS011;54238;52.278;21.056;2022-11-20T05:39:05;56.40;;;26.90;;
67352;SDS011;54238;52.278;21.056;2022-11-20T05:41:32;60.90;;;27.50;;
67352;SDS011;54238;52.278;21.056;2022-11-20T05:43:59;56.40;;;24.10;;
67352;SDS011;54238;52.278;21.056;2022-11-20T05:46:31;49.90;;;23.30;;
67352;SDS011;54238;52.278;21.056;2022-11-20T05:49:05;53.90;;;25.40;;
67352;SDS011;54238;52.278;21.056;2022-11-20T05:51:32;53.90;;;25.80;;
67352;SDS011;54238;52.278;21.056;2022-11-20T05:53:59;57.50;;;25.10;;
67352;SDS011;54238;52.278;21.056;2022-11-20T05:56:26;51.60;;;24.40;;
67352;SDS011;54238;52.278;21.056;2022-11-20T05:58:54;57.90;;;23.00;;
67352;SDS011;54238;52.278;21.056;2022-11-20T06:01:23;50.30;;;23.90;;
67352;SDS011;54238;52.278;21.056;2022-11-20T06:03:53;45.60;;;23.20;;
67352;SDS011;54238;52.278;21.056;2022-11-20T06:06:24;58.90;;;25.30;;
67352;SDS011;54238;52.278;21.056;2022-11-20T06:08:54;58.30;;;27.40;;
67352;SDS011;54238;52.278;21.056;2022-11-20T06:11:22;57.10;;;24.50;;
67352;SDS011;54238;52.278;21.056;2022-11-20T06:13:51;50.00;;;25.50;;
67352;SDS011;54238;52.278;21.056;2022-11-20T06:16:23;55.80;;;25.60;;
67352;SDS011;54238;52.278;21.056;2022-11-20T06:18:52;61.90;;;27.50;;
67352;SDS011;54238;52.278;21.056;2022-11-20T06:21:21;57.80;;;26.30;;
67352;SDS011;54238;52.278;21.056;2022-11-20T06:23:50;59.90;;;23.90;;
67352;SDS011;54238;52.278;21.056;2022-11-20T06:26:27;50.60;;;25.80;;
67352;SDS011;54238;52.278;21.056;2022-11-20T06:28:59;49.10;;;24.00;;
67352;SDS011;54238;52.278;21.056;2022-11-20T06:31:26;56.30;;;25.40;;
67352;SDS011;54238;52.278;21.056;2022-11-20T06:33:55;33.90;;;18.40;;
67352;SDS011;54238;52.278;21.056;2022-11-20T06:36:27;37.30;;;16.90;;
67352;SDS011;54238;52.278;21.056;2022-11-20T06:38:56;43.50;;;20.90;;
67352;SDS011;54238;52.278;21.056;2022-11-20T06:41:23;38.10;;;20.70;;
67352;SDS011;54238;52.278;21.056;2022-11-20T06:43:51;56.10;;;26.70;;
67352;SDS011;54238;52.278;21.056;2022-11-20T06:46:21;54.40;;;26.70;;
67352;SDS011;54238;52.278;21.056;2022-11-20T06:48:49;55.10;;;27.30;;
67352;SDS011;54238;52.278;21.056;2022-11-20T06:51:17;55.00;;;26.20;;
67352;SDS011;54238;52.278;21.056;2022-11-20T06:53:49;53.20;;;24.10;;
67352;SDS011;54238;52.278;21.056;2022-11-20T06:56:23;62.20;;;28.00;;
67352;SDS011;54238;52.278;21.056;2022-11-20T06:58:53;52.90;;;26.40;;
67352;SDS011;54238;52.278;21.056;2022-11-20T07:01:24;55.50;;;25.40;;
67352;SDS011;54238;52.278;21.056;2022-11-20T07:03:53;49.20;;;24.70;;
67352;SDS011;54238;52.278;21.056;2022-11-20T07:06:20;55.20;;;24.10;;
67352;SDS011;54238;52.278;21.056;2022-11-20T07:08:50;32.00;;;15.30;;
67352;SDS011;54238;52.278;21.056;2022-11-20T07:11:23;49.20;;;20.70;;
67352;SDS011;54238;52.278;21.056;2022-11-20T07:13:50;54.60;;;26.00;;
67352;SDS011;54238;52.278;21.056;2022-11-20T07:16:19;40.10;;;19.50;;
67352;SDS011;54238;52.278;21.056;2022-11-20T07:18:51;36.00;;;19.20;;
67352;SDS011;54238;52.278;21.056;2022-11-20T07:21:22;37.90;;;17.80;;
67352;SDS011;54238;52.278;21.056;2022-11-20T07:23:49;45.50;;;24.60;;
67352;SDS011;54238;52.278;21.056;2022-11-20T07:26:18;50.80;;;24.60;;
67352;SDS011;54238;52.278;21.056;2022-11-20T07:28:46;50.30;;;24.00;;
67352;SDS011;54238;52.278;21.056;2022-11-20T07:31:13;54.20;;;24.60;;
67352;SDS011;54238;52.278;21.056;2022-11-20T07:33:44;49.30;;;25.00;;
67352;SDS011;54238;52.278;21.056;2022-11-20T07:36:14;50.50;;;25.10;;
67352;SDS011;54238;52.278;21.056;2022-11-20T07:38:43;51.00;;;23.80;;
67352;SDS011;54238;52.278;21.056;2022-11-20T07:41:10;47.00;;;22.80;;
67352;SDS011;54238;52.278;21.056;2022-11-20T07:43:40;53.00;;;26.00;;
67352;SDS011;54238;52.278;21.056;2022-11-20T07:46:09;48.60;;;24.30;;
67352;SDS011;54238;52.278;21.056;2022-11-20T07:48:38;42.60;;;20.60;;
67352;SDS011;54238;52.278;21.056;2022-11-20T07:51:07;47.10;;;22.40;;
67352;SDS011;54238;52.278;21.056;2022-11-20T07:53:34;53.50;;;23.70;;
67352;SDS011;54238;52.278;21.056;2022-11-20T07:56:07;38.70;;;20.00;;
67352;SDS011;54238;52.278;21.056;2022-11-20T07:58:34;43.40;;;22.20;;
67352;SDS011;54238;52.278;21.056;2022-11-20T08:01:07;47.60;;;24.50;;
67352;SDS011;54238;52.278;21.056;2022-11-20T08:03:37;49.40;;;25.50;;
67352;SDS011;54238;52.278;21.056;2022-11-20T08:06:04;45.90;;;23.00;;
67352;SDS011;54238;52.278;21.056;2022-11-20T08:08:34;51.30;;;25.40;;
67352;SDS011;54238;52.278;21.056;2022-11-20T08:11:01;57.50;;;28.10;;
67352;SDS011;54238;52.278;21.056;2022-11-20T08:13:47;55.30;;;24.50;;
67352;SDS011;54238;52.278;21.056;2022-11-20T08:16:35;60.50;;;28.10;;
67352;SDS011;54238;52.278;21.056;2022-11-20T08:19:07;50.30;;;21.80;;
67352;SDS011;54238;52.278;21.056;2022-11-20T08:21:37;49.30;;;23.20;;
67352;SDS011;54238;52.278;21.056;2022-11-20T08:24:08;48.00;;;24.90;;
67352;SDS011;54238;52.278;21.056;2022-11-20T08:26:37;48.00;;;23.70;;
67352;SDS011;54238;52.278;21.056;2022-11-20T08:29:08;39.80;;;21.00;;
67352;SDS011;54238;52.278;21.056;2022-11-20T08:31:38;57.10;;;27.30;;
67352;SDS011;54238;52.278;21.056;2022-11-20T08:34:32;44.30;;;22.50;;
67352;SDS011;54238;52.278;21.056;2022-11-20T08:37:01;48.50;;;26.20;;
67352;SDS011;54238;52.278;21.056;2022-11-20T08:39:31;39.20;;;22.00;;
67352;SDS011;54238;52.278;21.056;2022-11-20T08:41:58;60.60;;;27.90;;
67352;SDS011;54238;52.278;21.056;2022-11-20T08:44:25;49.20;;;23.00;;
67352;SDS011;54238;52.278;21.056;2022-11-20T08:46:52;43.80;;;22.70;;
67352;SDS011;54238;52.278;21.056;2022-11-20T08:49:19;41.10;;;21.40;;
67352;SDS011;54238;52.278;21.056;2022-11-20T08:51:51;49.80;;;25.90;;
67352;SDS011;54238;52.278;21.056;2022-11-20T08:54:21;59.30;;;28.90;;
67352;SDS011;54238;52.278;21.056;2022-11-20T08:56:53;54.10;;;26.70;;
67352;SDS011;54238;52.278;21.056;2022-11-20T08:59:22;49.50;;;25.90;;
67352;SDS011;54238;52.278;21.056;2022-11-20T09:01:49;57.90;;;29.40;;
67352;SDS011;54238;52.278;21.056;2022-11-20T09:04:16;51.70;;;28.70;;
67352;SDS011;54238;52.278;21.056;2022-11-20T09:06:48;51.10;;;27.30;;
67352;SDS011;54238;52.278;21.056;2022-11-20T09:09:18;63.80;;;32.20;;
67352;SDS011;54238;52.278;21.056;2022-11-20T09:11:47;52.90;;;27.40;;
67352;SDS011;54238;52.278;21.056;2022-11-20T09:14:16;54.60;;;28.00;;
67352;SDS011;54238;52.278;21.056;2022-11-20T09:16:46;49.50;;;26.70;;
67352;SDS011;54238;52.278;21.056;2022-11-20T09:19:15;56.10;;;29.00;;
67352;SDS011;54238;52.278;21.056;2022-11-20T09:21:44;51.30;;;28.50;;
67352;SDS011;54238;52.278;21.056;2022-11-20T09:24:11;44.90;;;27.30;;
67352;SDS011;54238;52.278;21.056;2022-11-20T09:26:41;48.60;;;27.60;;
67352;SDS011;54238;52.278;21.056;2022-11-20T09:29:10;53.40;;;30.50;;
67352;SDS011;54238;52.278;21.056;2022-11-20T09:31:37;44.20;;;28.40;;
67352;SDS011;54238;52.278;21.056;2022-11-20T09:34:04;42.10;;;26.60;;
67352;SDS011;54238;52.278;21.056;2022-11-20T09:36:34;48.40;;;30.10;;
67352;SDS011;54238;52.278;21.056;2022-11-20T09:39:05;56.40;;;31.10;;
67352;SDS011;54238;52.278;21.056;2022-11-20T09:50:17;45.60;;;29.10;;
67352;SDS011;54238;52.278;21.056;2022-11-20T09:53:16;50.00;;;30.40;;
67352;SDS011;54238;52.278;21.056;2022-11-20T09:55:54;53.00;;;32.40;;
67352;SDS011;54238;52.278;21.056;2022-11-20T09:58:40;55.80;;;32.00;;
67352;SDS011;54238;52.278;21.056;2022-11-20T10:01:15;50.60;;;32.90;;
67352;SDS011;54238;52.278;21.056;2022-11-20T10:03:58;49.60;;;30.40;;
67352;SDS011;54238;52.278;21.056;2022-11-20T10:06:37;47.00;;;29.00;;
67352;SDS011;54238;52.278;21.056;2022-11-20T10:14:38;47.30;;;31.40;;
67352;SDS011;54238;52.278;21.056;2022-11-20T10:17:30;46.80;;;30.90;;
67352;SDS011;54238;52.278;21.056;2022-11-20T10:26:24;43.30;;;28.20;;
67352;SDS011;54238;52.278;21.056;2022-11-20T10:31:51;42.10;;;28.20;;
67352;SDS011;54238;52.278;21.056;2022-11-20T10:34:28;50.60;;;29.60;;
67352;SDS011;54238;52.278;21.056;2022-11-20T10:37:12;48.20;;;33.50;;
67352;SDS011;54238;52.278;21.056;2022-11-20T10:45:39;45.30;;;31.00;;
67352;SDS011;54238;52.278;21.056;2022-11-20T10:48:17;51.50;;;33.30;;
67352;SDS011;54238;52.278;21.056;2022-11-20T11:02:22;51.70;;;34.40;;
67352;SDS011;54238;52.278;21.056;2022-11-20T11:05:06;46.00;;;30.80;;
67352;SDS011;54238;52.278;21.056;2022-11-20T11:07:54;47.20;;;31.10;;
67352;SDS011;54238;52.278;21.056;2022-11-20T11:10:36;47.30;;;34.00;;
67352;SDS011;54238;52.278;21.056;2022-11-20T11:13:21;50.10;;;35.10;;
67352;SDS011;54238;52.278;21.056;2022-11-20T11:15:57;46.80;;;31.40;;
67352;SDS011;54238;52.278;21.056;2022-11-20T11:18:32;51.60;;;33.90;;
67352;SDS011;54238;52.278;21.056;2022-11-20T11:21:04;47.70;;;33.90;;
67352;SDS011;54238;52.278;21.056;2022-11-20T11:23:37;47.50;;;32.00;;
67352;SDS011;54238;52.278;21.056;2022-11-20T11:26:18;41.90;;;29.30;;
67352;SDS011;54238;52.278;21.056;2022-11-20T11:29:00;49.50;;;33.60;;
67352;SDS011;54238;52.278;21.056;2022-11-20T11:31:33;48.60;;;33.40;;
67352;SDS011;54238;52.278;21.056;2022-11-20T11:36:41;49.90;;;34.10;;
67352;SDS011;54238;52.278;21.056;2022-11-20T11:39:17;50.90;;;33.80;;
67352;SDS011;54238;52.278;21.056;2022-11-20T11:41:47;43.90;;;32.50;;
67352;SDS011;54238;52.278;21.056;2022-11-20T11:44:27;43.00;;;32.00;;
67352;SDS011;54238;52.278;21.056;2022-11-20T11:47:30;47.70;;;34.00;;
67352;SDS011;54238;52.278;21.056;2022-11-20T11:53:02;51.60;;;34.50;;
67352;SDS011;54238;52.278;21.056;2022-11-20T11:58:16;44.80;;;32.50;;
67352;SDS011;54238;52.278;21.056;2022-11-20T12:01:03;50.10;;;33.20;;
67352;SDS011;54238;52.278;21.056;2022-11-20T12:03:39;53.70;;;35.90;;
67352;SDS011;54238;52.278;21.056;2022-11-20T12:06:14;46.90;;;32.90;;
67352;SDS011;54238;52.278;21.056;2022-11-20T12:08:49;47.00;;;34.60;;
67352;SDS011;54238;52.278;21.056;2022-11-20T12:11:44;46.50;;;34.60;;
67352;SDS011;54238;52.278;21.056;2022-11-20T12:14:33;47.70;;;32.70;;
67352;SDS011;54238;52.278;21.056;2022-11-20T12:17:07;47.40;;;32.80;;
67352;SDS011;54238;52.278;21.056;2022-11-20T12:19:39;45.10;;;33.20;;
67352;SDS011;54238;52.278;21.056;2022-11-20T12:30:47;43.80;;;32.80;;
67352;SDS011;54238;52.278;21.056;2022-11-20T12:34:04;49.30;;;32.80;;
67352;SDS011;54238;52.278;21.056;2022-11-20T12:36:51;44.30;;;32.10;;
67352;SDS011;54238;52.278;21.056;2022-11-20T12:39:38;46.50;;;34.20;;
67352;SDS011;54238;52.278;21.056;2022-11-20T12:42:43;49.00;;;34.10;;
67352;SDS011;54238;52.278;21.056;2022-11-20T12:48:46;47.90;;;33.50;;
67352;SDS011;54238;52.278;21.056;2022-11-20T13:08:39;47.20;;;33.10;;
67352;SDS011;54238;52.278;21.056;2022-11-20T13:11:14;47.30;;;32.50;;
67352;SDS011;54238;52.278;21.056;2022-11-20T13:17:37;45.10;;;34.50;;
67352;SDS011;54238;52.278;21.056;2022-11-20T13:20:15;50.10;;;32.90;;
67352;SDS011;54238;52.278;21.056;2022-11-20T13:22:47;46.10;;;34.20;;
67352;SDS011;54238;52.278;21.056;2022-11-20T13:30:49;47.10;;;33.30;;
67352;SDS011;54238;52.278;21.056;2022-11-20T13:36:02;52.50;;;33.70;;
67352;SDS011;54238;52.278;21.056;2022-11-20T13:38:46;46.00;;;30.80;;
67352;SDS011;54238;52.278;21.056;2022-11-20T13:41:31;49.40;;;32.80;;
67352;SDS011;54238;52.278;21.056;2022-11-20T13:44:20;49.20;;;31.90;;
67352;SDS011;54238;52.278;21.056;2022-11-20T13:46:54;51.20;;;32.30;;
67352;SDS011;54238;52.278;21.056;2022-11-20T13:49:28;58.70;;;34.70;;
67352;SDS011;54238;52.278;21.056;2022-11-20T13:55:16;53.40;;;33.20;;
67352;SDS011;54238;52.278;21.056;2022-11-20T14:01:08;63.40;;;34.60;;
67352;SDS011;54238;52.278;21.056;2022-11-20T14:03:38;57.70;;;33.10;;
67352;SDS011;54238;52.278;21.056;2022-11-20T14:06:28;56.70;;;32.60;;
67352;SDS011;54238;52.278;21.056;2022-11-20T14:08:58;45.40;;;27.30;;
67352;SDS011;54238;52.278;21.056;2022-11-20T14:11:28;50.20;;;31.30;;
67352;SDS011;54238;52.278;21.056;2022-11-20T14:14:18;58.20;;;34.10;;
67352;SDS011;54238;52.278;21.056;2022-11-20T14:16:48;57.30;;;33.90;;
67352;SDS011;54238;52.278;21.056;2022-11-20T14:22:06;56.00;;;30.30;;
67352;SDS011;54238;52.278;21.056;2022-11-20T14:24:36;54.20;;;29.10;;
67352;SDS011;54238;52.278;21.056;2022-11-20T14:27:18;52.90;;;33.10;;
67352;SDS011;54238;52.278;21.056;2022-11-20T14:29:49;50.90;;;29.00;;
67352;SDS011;54238;52.278;21.056;2022-11-20T14:32:20;55.70;;;29.20;;
67352;SDS011;54238;52.278;21.056;2022-11-20T14:35:03;46.10;;;26.40;;
67352;SDS011;54238;52.278;21.056;2022-11-20T14:37:40;53.10;;;28.50;;
67352;SDS011;54238;52.278;21.056;2022-11-20T14:42:58;48.10;;;27.10;;
67352;SDS011;54238;52.278;21.056;2022-11-20T14:45:28;47.70;;;27.20;;
67352;SDS011;54238;52.278;21.056;2022-11-20T14:48:01;40.60;;;22.90;;
67352;SDS011;54238;52.278;21.056;2022-11-20T14:50:29;54.40;;;28.50;;
67352;SDS011;54238;52.278;21.056;2022-11-20T14:53:02;40.60;;;22.70;;
67352;SDS011;54238;52.278;21.056;2022-11-20T14:55:34;44.40;;;22.20;;
67352;SDS011;54238;52.278;21.056;2022-11-20T14:58:18;44.00;;;23.90;;
67352;SDS011;54238;52.278;21.056;2022-11-20T15:01:00;46.90;;;27.00;;
67352;SDS011;54238;52.278;21.056;2022-11-20T15:03:36;49.40;;;27.50;;
67352;SDS011;54238;52.278;21.056;2022-11-20T15:06:07;43.80;;;22.60;;
67352;SDS011;54238;52.278;21.056;2022-11-20T15:11:20;41.30;;;21.30;;
67352;SDS011;54238;52.278;21.056;2022-11-20T15:13:57;35.70;;;19.20;;
67352;SDS011;54238;52.278;21.056;2022-11-20T15:16:33;45.10;;;24.00;;
67352;SDS011;54238;52.278;21.056;2022-11-20T15:19:02;57.00;;;29.20;;
67352;SDS011;54238;52.278;21.056;2022-11-20T15:21:35;45.40;;;23.50;;
67352;SDS011;54238;52.278;21.056;2022-11-20T15:24:01;40.80;;;21.20;;
67352;SDS011;54238;52.278;21.056;2022-11-20T15:26:31;46.50;;;23.40;;
67352;SDS011;54238;52.278;21.056;2022-11-20T15:29:02;48.10;;;21.80;;
67352;SDS011;54238;52.278;21.056;2022-11-20T15:31:35;49.10;;;24.60;;
67352;SDS011;54238;52.278;21.056;2022-11-20T15:34:02;50.80;;;27.00;;
67352;SDS011;54238;52.278;21.056;2022-11-20T15:36:31;54.90;;;29.00;;
67352;SDS011;54238;52.278;21.056;2022-11-20T15:38:58;53.70;;;29.60;;
67352;SDS011;54238;52.278;21.056;2022-11-20T15:41:27;55.00;;;28.30;;
67352;SDS011;54238;52.278;21.056;2022-11-20T15:43:54;56.80;;;30.30;;
67352;SDS011;54238;52.278;21.056;2022-11-20T15:46:27;56.10;;;27.10;;
67352;SDS011;54238;52.278;21.056;2022-11-20T15:48:59;54.70;;;29.20;;
67352;SDS011;54238;52.278;21.056;2022-11-20T15:51:31;55.70;;;29.60;;
67352;SDS011;54238;52.278;21.056;2022-11-20T15:54:15;48.80;;;26.10;;
67352;SDS011;54238;52.278;21.056;2022-11-20T15:56:47;53.60;;;29.10;;
67352;SDS011;54238;52.278;21.056;2022-11-20T15:59:21;55.90;;;28.40;;
67352;SDS011;54238;52.278;21.056;2022-11-20T16:01:50;44.50;;;23.50;;
67352;SDS011;54238;52.278;21.056;2022-11-20T16:04:17;52.30;;;25.20;;
67352;SDS011;54238;52.278;21.056;2022-11-20T16:06:45;57.90;;;28.60;;
67352;SDS011;54238;52.278;21.056;2022-11-20T16:09:14;48.60;;;25.70;;
67352;SDS011;54238;52.278;21.056;2022-11-20T16:11:41;38.90;;;22.40;;
67352;SDS011;54238;52.278;21.056;2022-11-20T16:14:13;50.20;;;26.00;;
67352;SDS011;54238;52.278;21.056;2022-11-20T16:16:59;40.30;;;20.80;;
67352;SDS011;54238;52.278;21.056;2022-11-20T16:19:26;47.70;;;26.50;;
67352;SDS011;54238;52.278;21.056;2022-11-20T16:21:57;43.70;;;23.10;;
67352;SDS011;54238;52.278;21.056;2022-11-20T16:24:31;48.00;;;25.50;;
67352;SDS011;54238;52.278;21.056;2022-11-20T16:26:58;51.20;;;26.60;;
67352;SDS011;54238;52.278;21.056;2022-11-20T16:29:25;55.50;;;28.30;;